createdAt,value
2023-05-11T00:01:44.382Z,12.30
2023-05-11T00:04:16.331Z,12.30
2023-05-11T00:06:48.186Z,12.20
2023-05-11T00:09:20.097Z,12.20
2023-05-11T00:11:53.202Z,12.10
2023-05-11T00:14:25.076Z,12.20
2023-05-11T00:16:56.900Z,12.10
2023-05-11T00:19:31.420Z,12.10
2023-05-11T00:22:03.657Z,12.00
2023-05-11T00:24:35.573Z,12.00
2023-05-11T00:27:07.551Z,12.10
2023-05-11T00:29:39.429Z,12.10
2023-05-11T00:32:11.421Z,12.20
2023-05-11T00:34:43.246Z,12.10
2023-05-11T00:37:15.493Z,12.10
2023-05-11T00:39:47.402Z,12.10
2023-05-11T00:42:19.311Z,12.00
2023-05-11T00:44:51.487Z,11.80
2023-05-11T00:47:23.550Z,11.80
2023-05-11T00:49:55.637Z,11.80
2023-05-11T00:52:28.112Z,11.80
2023-05-11T00:54:59.986Z,11.90
2023-05-11T00:57:33.314Z,11.90
2023-05-11T01:00:07.210Z,11.90
2023-05-11T01:02:39.846Z,12.00
2023-05-11T01:05:12.746Z,12.00
2023-05-11T01:08:10.393Z,12.00
2023-05-11T01:10:48.801Z,12.10
2023-05-11T01:13:28.251Z,12.00
2023-05-11T01:16:12.536Z,11.90
2023-05-11T01:19:07.817Z,11.80
2023-05-11T01:21:41.752Z,11.70
2023-05-11T01:24:38.816Z,11.70
2023-05-11T01:27:19.671Z,11.70
2023-05-11T01:30:24.768Z,11.70
2023-05-11T01:33:04.146Z,11.80
2023-05-11T01:35:42.261Z,11.90
2023-05-11T01:38:16.145Z,11.90
2023-05-11T01:40:55.027Z,11.80
2023-05-11T01:43:29.434Z,11.80
2023-05-11T01:46:03.852Z,11.70
2023-05-11T01:48:39.753Z,11.70
2023-05-11T01:51:12.609Z,11.70
2023-05-11T01:53:45.925Z,11.80
2023-05-11T01:56:20.941Z,11.80
2023-05-11T01:58:55.454Z,11.80
2023-05-11T02:01:29.115Z,11.70
2023-05-11T02:04:04.033Z,11.60
2023-05-11T02:06:37.964Z,11.60
2023-05-11T02:09:12.353Z,11.60
2023-05-11T02:11:47.740Z,11.70
2023-05-11T02:14:24.519Z,11.80
2023-05-11T02:16:57.380Z,11.80
2023-05-11T02:19:31.982Z,11.90
2023-05-11T02:22:06.415Z,11.90
2023-05-11T02:24:38.792Z,11.90
2023-05-11T02:27:11.644Z,11.90
2023-05-11T02:29:43.587Z,11.80
2023-05-11T02:32:20.180Z,11.80
2023-05-11T02:35:02.000Z,11.90
2023-05-11T02:37:39.894Z,11.90
2023-05-11T02:40:17.442Z,11.80
2023-05-11T02:42:57.094Z,11.70
2023-05-11T02:45:32.498Z,11.80
2023-05-11T02:48:11.271Z,11.80
2023-05-11T02:50:43.946Z,11.90
2023-05-11T02:53:18.687Z,11.90
2023-05-11T02:55:51.472Z,11.90
2023-05-11T02:58:24.302Z,11.90
2023-05-11T03:01:28.046Z,11.90
2023-05-11T03:04:04.952Z,11.70
2023-05-11T03:06:37.588Z,11.70
2023-05-11T03:09:12.044Z,11.70
2023-05-11T03:11:50.237Z,11.60
2023-05-11T03:14:22.317Z,11.60
2023-05-11T03:16:56.332Z,11.60
2023-05-11T03:19:29.412Z,11.50
2023-05-11T03:22:03.986Z,11.50
2023-05-11T03:24:36.458Z,11.50
2023-05-11T03:27:09.567Z,11.50
2023-05-11T03:29:44.665Z,11.50
2023-05-11T03:32:17.509Z,11.50
2023-05-11T03:34:49.700Z,11.40
2023-05-11T03:37:23.869Z,11.40
2023-05-11T03:39:58.579Z,11.30
2023-05-11T03:42:34.159Z,11.30
2023-05-11T03:45:08.226Z,11.30
2023-05-11T03:47:42.083Z,11.30
2023-05-11T03:50:16.915Z,11.30
2023-05-11T03:52:49.425Z,11.40
2023-05-11T03:55:21.576Z,11.50
2023-05-11T03:57:53.644Z,11.60
2023-05-11T04:00:26.726Z,11.70
2023-05-11T04:03:02.342Z,11.70
2023-05-11T04:05:34.658Z,11.80
2023-05-11T04:08:10.831Z,11.70
2023-05-11T04:10:42.653Z,11.70
2023-05-11T04:13:14.610Z,11.70
2023-05-11T04:15:47.367Z,11.70
2023-05-11T04:18:19.937Z,11.70
2023-05-11T04:20:52.206Z,11.70
2023-05-11T04:23:24.107Z,11.80
2023-05-11T04:25:56.442Z,11.70
2023-05-11T04:28:28.349Z,11.80
2023-05-11T04:31:00.349Z,11.90
2023-05-11T04:33:32.722Z,11.80
2023-05-11T04:36:05.614Z,11.80
2023-05-11T04:38:37.711Z,11.80
2023-05-11T04:41:10.931Z,11.90
2023-05-11T04:43:44.807Z,11.80
2023-05-11T04:46:16.814Z,11.90
2023-05-11T04:48:50.034Z,11.80
2023-05-11T04:51:21.959Z,11.70
2023-05-11T04:53:54.155Z,11.70
2023-05-11T04:56:26.423Z,11.70
2023-05-11T04:58:58.483Z,11.80
2023-05-11T05:01:30.380Z,11.80
2023-05-11T05:04:02.510Z,11.80
2023-05-11T05:06:34.676Z,11.90
2023-05-11T05:09:06.994Z,11.90
2023-05-11T05:11:39.570Z,11.80
2023-05-11T05:14:11.423Z,11.60
2023-05-11T05:16:43.344Z,11.60
2023-05-11T05:19:16.084Z,11.60
2023-05-11T05:21:48.482Z,11.60
2023-05-11T05:24:20.529Z,11.70
2023-05-11T05:26:52.398Z,11.70
2023-05-11T05:29:24.357Z,11.70
2023-05-11T05:31:59.111Z,11.80
2023-05-11T05:34:31.803Z,11.80
2023-05-11T05:37:04.240Z,11.70
2023-05-11T05:39:36.637Z,11.70
2023-05-11T05:42:08.575Z,11.60
2023-05-11T05:44:40.902Z,11.60
2023-05-11T05:47:12.700Z,11.50
2023-05-11T05:49:44.911Z,11.50
2023-05-11T05:52:17.111Z,11.50
2023-05-11T05:54:49.816Z,11.50
2023-05-11T05:57:21.840Z,11.60
2023-05-11T05:59:53.724Z,11.60
2023-05-11T06:02:25.752Z,11.60
2023-05-11T06:04:58.707Z,11.70
2023-05-11T06:07:30.892Z,11.80
2023-05-11T06:10:03.524Z,11.80
2023-05-11T06:12:36.461Z,11.90
2023-05-11T06:15:09.020Z,12.00
2023-05-11T06:17:43.808Z,12.00
2023-05-11T06:20:17.328Z,12.10
2023-05-11T06:22:49.489Z,12.10
2023-05-11T06:25:21.681Z,12.10
2023-05-11T06:27:53.914Z,12.20
2023-05-11T06:30:26.227Z,12.20
2023-05-11T06:32:58.527Z,12.30
2023-05-11T06:35:30.425Z,12.30
2023-05-11T06:38:03.369Z,12.30
2023-05-11T06:40:35.392Z,12.30
2023-05-11T06:43:12.841Z,12.30
2023-05-11T06:45:55.158Z,12.30
2023-05-11T06:48:29.816Z,12.40
2023-05-11T06:51:02.333Z,12.40
2023-05-11T06:53:38.976Z,12.40
2023-05-11T06:56:10.871Z,12.50
2023-05-11T06:58:43.087Z,12.60
2023-05-11T07:01:15.094Z,12.50
2023-05-11T07:03:49.124Z,12.50
2023-05-11T07:06:21.474Z,12.40
2023-05-11T07:08:53.456Z,12.50
2023-05-11T07:11:26.209Z,12.50
2023-05-11T07:13:58.301Z,12.50
2023-05-11T07:16:30.261Z,12.60
2023-05-11T07:19:02.288Z,12.50
2023-05-11T07:21:35.419Z,12.50
2023-05-11T07:24:07.411Z,12.50
2023-05-11T07:26:39.232Z,12.50
2023-05-11T07:29:11.105Z,12.50
2023-05-11T07:31:43.082Z,12.50
2023-05-11T07:34:14.985Z,12.60
2023-05-11T07:36:46.918Z,12.70
2023-05-11T07:39:19.440Z,12.80
2023-05-11T07:41:51.432Z,12.80
2023-05-11T07:44:23.263Z,12.90
2023-05-11T07:46:55.195Z,12.80
2023-05-11T07:49:35.613Z,12.80
2023-05-11T07:52:14.895Z,12.80
2023-05-11T07:54:46.948Z,12.90
2023-05-11T07:57:29.776Z,12.80
2023-05-11T08:00:01.721Z,12.80
2023-05-11T08:02:44.003Z,12.90
2023-05-11T08:05:17.044Z,12.80
2023-05-11T08:07:49.140Z,12.90
2023-05-11T08:10:26.659Z,13.00
2023-05-11T08:13:00.362Z,13.10
2023-05-11T08:15:32.258Z,13.10
2023-05-11T08:18:04.421Z,13.10
2023-05-11T08:20:37.039Z,13.10
2023-05-11T08:23:10.910Z,13.10
2023-05-11T08:25:52.217Z,13.20
2023-05-11T08:28:24.102Z,13.20
2023-05-11T08:30:57.798Z,13.10
2023-05-11T08:36:04.881Z,13.40
2023-05-11T08:38:36.775Z,13.30
2023-05-11T08:41:11.589Z,13.40
2023-05-11T08:43:45.737Z,13.30
2023-05-11T08:46:22.296Z,13.30
2023-05-11T08:48:54.654Z,13.30
2023-05-11T08:51:30.954Z,13.20
2023-05-11T08:54:03.724Z,13.40
2023-05-11T08:56:37.594Z,13.40
2023-05-11T08:59:12.399Z,13.40
2023-05-11T09:01:46.159Z,13.40
2023-05-11T09:04:19.774Z,13.40
2023-05-11T09:06:52.139Z,13.40
2023-05-11T09:09:24.062Z,13.50
2023-05-11T09:11:56.177Z,13.60
2023-05-11T09:14:29.168Z,13.60
2023-05-11T09:17:01.108Z,13.60
2023-05-11T09:19:33.009Z,13.60
2023-05-11T09:22:06.585Z,13.60
2023-05-11T09:24:42.710Z,13.50
2023-05-11T09:29:56.221Z,13.50
2023-05-11T09:32:28.118Z,13.60
2023-05-11T09:35:19.091Z,13.50
2023-05-11T09:37:57.653Z,13.60
2023-05-11T09:40:34.385Z,13.60
2023-05-11T09:43:27.080Z,13.60
2023-05-11T09:46:07.603Z,13.60
2023-05-11T09:48:40.436Z,13.70
2023-05-11T09:51:13.233Z,13.80
2023-05-11T09:53:46.157Z,13.80
2023-05-11T09:56:18.226Z,13.90
2023-05-11T09:58:55.059Z,14.00
2023-05-11T10:01:35.021Z,14.00
2023-05-11T10:04:22.022Z,14.00
2023-05-11T10:06:56.025Z,14.00
2023-05-11T10:09:28.578Z,14.00
2023-05-11T10:12:02.642Z,14.00
2023-05-11T10:14:35.015Z,14.10
2023-05-11T10:17:07.036Z,14.10
2023-05-11T10:19:39.123Z,14.10
2023-05-11T10:22:11.582Z,14.20
2023-05-11T10:24:44.875Z,14.10
2023-05-11T10:27:17.078Z,14.10
2023-05-11T10:29:49.684Z,14.20
2023-05-11T10:32:22.709Z,14.30
2023-05-11T10:34:57.112Z,14.30
2023-05-11T10:37:29.747Z,14.50
2023-05-11T10:40:02.139Z,14.60
2023-05-11T10:42:48.797Z,14.50
2023-05-11T10:45:49.664Z,14.50
2023-05-11T10:49:01.892Z,14.30
2023-05-11T10:52:11.099Z,14.30
2023-05-11T10:55:07.587Z,14.30
2023-05-11T10:57:56.546Z,14.20
2023-05-11T11:01:21.576Z,14.10
2023-05-11T11:04:03.070Z,14.10
2023-05-11T11:06:43.290Z,14.10
2023-05-11T11:09:16.626Z,14.10
2023-05-11T11:11:51.136Z,14.10
2023-05-11T11:14:26.289Z,14.10
2023-05-11T11:17:16.412Z,14.20
2023-05-11T11:19:48.392Z,14.20
2023-05-11T11:22:35.871Z,14.20
2023-05-11T11:25:12.141Z,14.20
2023-05-11T11:27:43.949Z,14.20
2023-05-11T11:30:22.462Z,14.30
2023-05-11T11:32:56.599Z,14.40
2023-05-11T11:35:43.607Z,14.40
2023-05-11T11:38:18.126Z,14.40
2023-05-11T11:40:54.176Z,14.40
2023-05-11T11:43:45.048Z,14.50
2023-05-11T11:46:31.555Z,14.50
2023-05-11T11:49:09.107Z,14.70
2023-05-11T11:51:41.324Z,14.70
2023-05-11T11:54:13.412Z,14.60
2023-05-11T11:56:46.302Z,14.70
2023-05-11T11:59:19.023Z,14.80
2023-05-11T12:01:52.317Z,14.70
2023-05-11T12:04:50.975Z,14.80
2023-05-11T12:07:25.812Z,15.00
2023-05-11T12:09:58.724Z,15.10
2023-05-11T12:12:31.430Z,15.20
2023-05-11T12:15:09.802Z,15.30
2023-05-11T12:17:43.100Z,15.40
2023-05-11T12:20:17.307Z,15.40
2023-05-11T12:22:53.207Z,15.40
2023-05-11T12:25:28.073Z,15.30
2023-05-11T12:28:02.736Z,15.20
2023-05-11T12:30:37.897Z,15.20
2023-05-11T12:33:14.899Z,15.20
2023-05-11T12:35:56.016Z,15.20
2023-05-11T12:38:28.588Z,15.30
2023-05-11T12:41:01.319Z,15.30
2023-05-11T12:43:33.455Z,15.20
2023-05-11T12:46:05.687Z,15.10
2023-05-11T12:48:38.044Z,15.20
2023-05-11T12:51:10.106Z,15.20
2023-05-11T12:53:42.023Z,15.10
2023-05-11T12:56:14.056Z,15.10
2023-05-11T12:58:46.172Z,15.10
2023-05-11T13:01:24.301Z,15.30
2023-05-11T13:03:56.488Z,15.50
2023-05-11T13:06:28.524Z,15.70
2023-05-11T13:09:00.536Z,15.40
2023-05-11T13:11:32.489Z,15.10
2023-05-11T13:14:17.299Z,15.10
2023-05-11T13:16:55.206Z,15.00
2023-05-11T13:19:32.135Z,15.00
2023-05-11T13:22:04.147Z,15.00
2023-05-11T13:24:36.140Z,15.10
2023-05-11T13:27:07.980Z,15.10
2023-05-11T13:29:39.867Z,15.00
2023-05-11T13:32:12.432Z,15.00
2023-05-11T13:34:44.449Z,14.90
2023-05-11T13:37:16.458Z,14.80
2023-05-11T13:39:48.307Z,14.80
2023-05-11T13:42:20.464Z,14.90
2023-05-11T13:44:52.300Z,14.90
2023-05-11T13:47:24.609Z,14.90
2023-05-11T13:49:56.845Z,15.00
2023-05-11T13:52:28.678Z,15.20
2023-05-11T13:55:02.934Z,15.20
2023-05-11T13:57:35.401Z,15.10
2023-05-11T14:00:08.364Z,15.10
2023-05-11T14:02:44.290Z,15.00
2023-05-11T14:05:17.297Z,15.00
2023-05-11T14:07:49.456Z,14.90
2023-05-11T14:10:21.451Z,14.80
2023-05-11T14:12:54.334Z,14.80
2023-05-11T14:15:26.323Z,14.80
2023-05-11T14:17:58.542Z,14.80
2023-05-11T14:20:31.033Z,14.90
2023-05-11T14:23:03.266Z,15.00
2023-05-11T14:25:36.472Z,15.10
2023-05-11T14:28:10.774Z,15.10
2023-05-11T14:30:42.662Z,15.00
2023-05-11T14:33:14.523Z,15.00
2023-05-11T14:35:49.333Z,15.00
2023-05-11T14:38:21.254Z,15.00
2023-05-11T14:40:53.115Z,14.90
2023-05-11T14:43:24.973Z,14.90
2023-05-11T14:45:56.898Z,15.00
2023-05-11T14:48:28.785Z,15.10
2023-05-11T14:51:00.753Z,15.00
2023-05-11T14:53:32.639Z,15.00
2023-05-11T14:56:04.734Z,14.90
2023-05-11T14:58:36.675Z,14.90
2023-05-11T15:01:08.661Z,14.80
2023-05-11T15:03:41.567Z,14.80
2023-05-11T15:06:21.330Z,14.90
2023-05-11T15:08:53.204Z,14.90
2023-05-11T15:11:25.441Z,14.90
2023-05-11T15:13:57.270Z,14.90
2023-05-11T15:16:32.141Z,14.80
2023-05-11T15:19:07.916Z,14.80
2023-05-11T15:21:42.800Z,14.60
2023-05-11T15:24:14.729Z,14.60
2023-05-11T15:26:46.601Z,14.60
2023-05-11T15:29:19.137Z,14.70
2023-05-11T15:31:51.250Z,14.70
2023-05-11T15:34:23.143Z,14.60
2023-05-11T15:36:54.990Z,14.60
2023-05-11T15:39:26.836Z,14.80
2023-05-11T15:41:58.711Z,14.80
2023-05-11T15:44:30.859Z,14.80
2023-05-11T15:47:02.780Z,14.80
2023-05-11T15:49:34.622Z,14.80
2023-05-11T15:52:07.208Z,14.70
2023-05-11T15:54:39.182Z,14.70
2023-05-11T15:57:11.155Z,14.60
2023-05-11T15:59:43.055Z,14.70
2023-05-11T16:02:15.071Z,14.60
2023-05-11T16:04:46.940Z,14.60
2023-05-11T16:07:18.927Z,14.70
2023-05-11T16:09:50.938Z,14.80
2023-05-11T16:12:22.946Z,14.80
2023-05-11T16:14:54.910Z,14.90
2023-05-11T16:17:27.128Z,14.90
2023-05-11T16:20:00.468Z,15.00
2023-05-11T16:22:32.472Z,15.00
2023-05-11T16:25:05.879Z,15.10
2023-05-11T16:27:37.815Z,15.00
2023-05-11T16:30:22.378Z,14.80
2023-05-11T16:32:55.881Z,14.70
2023-05-11T16:35:29.621Z,14.80
2023-05-11T16:38:02.582Z,14.80
2023-05-11T16:40:34.493Z,14.70
2023-05-11T16:43:06.337Z,14.80
2023-05-11T16:45:38.359Z,14.80
2023-05-11T16:48:10.563Z,14.90
2023-05-11T16:50:43.114Z,15.00
2023-05-11T16:53:20.226Z,15.00
2023-05-11T16:55:52.584Z,15.00
2023-05-11T16:58:25.085Z,15.00
2023-05-11T17:00:59.210Z,14.90
2023-05-11T17:03:32.790Z,14.80
2023-05-11T17:06:05.127Z,14.80
2023-05-11T17:08:37.303Z,14.70
2023-05-11T17:11:09.185Z,14.60
2023-05-11T17:13:41.197Z,14.50
2023-05-11T17:16:13.201Z,14.50
2023-05-11T17:18:45.190Z,14.60
2023-05-11T17:21:17.503Z,14.60
2023-05-11T17:23:49.420Z,14.70
2023-05-11T17:26:25.050Z,14.60
2023-05-11T17:29:00.187Z,14.50
2023-05-11T17:31:32.341Z,14.40
2023-05-11T17:34:04.356Z,14.40
2023-05-11T17:36:36.323Z,14.40
2023-05-11T17:39:08.564Z,14.30
2023-05-11T17:41:40.474Z,14.30
2023-05-11T17:44:13.459Z,14.30
2023-05-11T17:46:45.434Z,14.20
2023-05-11T17:49:17.384Z,14.20
2023-05-11T17:51:49.482Z,14.20
2023-05-11T17:54:21.335Z,14.20
2023-05-11T17:56:53.389Z,14.20
2023-05-11T17:59:25.326Z,14.30
2023-05-11T18:01:57.228Z,14.40
2023-05-11T18:04:30.025Z,14.50
2023-05-11T18:07:01.929Z,14.50
2023-05-11T18:09:34.350Z,14.50
2023-05-11T18:12:07.897Z,14.50
2023-05-11T18:14:39.934Z,14.40
2023-05-11T18:17:11.848Z,14.30
2023-05-11T18:19:44.037Z,14.20
2023-05-11T18:22:16.028Z,14.10
2023-05-11T18:24:48.021Z,14.10
2023-05-11T18:27:19.986Z,14.10
2023-05-11T18:29:52.753Z,14.00
2023-05-11T18:32:25.090Z,13.90
2023-05-11T18:34:56.899Z,13.90
2023-05-11T18:37:28.759Z,13.90
2023-05-11T18:40:08.761Z,13.90
2023-05-11T18:42:41.405Z,14.00
2023-05-11T18:45:14.004Z,14.10
2023-05-11T18:47:46.522Z,14.20
2023-05-11T18:50:20.294Z,14.20
2023-05-11T18:52:53.055Z,14.30
2023-05-11T18:55:26.841Z,14.30
2023-05-11T18:58:01.686Z,14.30
2023-05-11T19:00:37.028Z,14.30
2023-05-11T19:03:09.713Z,14.30
2023-05-11T19:05:43.742Z,14.20
2023-05-11T19:08:16.455Z,14.20
2023-05-11T19:10:49.538Z,14.20
2023-05-11T19:13:21.513Z,14.20
2023-05-11T19:15:53.346Z,14.20
2023-05-11T19:18:27.605Z,14.20
2023-05-11T19:20:59.479Z,14.30
2023-05-11T19:23:32.164Z,14.30
2023-05-11T19:26:04.045Z,14.20
2023-05-11T19:28:36.082Z,14.20
2023-05-11T19:31:07.881Z,14.20
2023-05-11T19:33:39.760Z,14.20
2023-05-11T19:36:11.781Z,14.10
2023-05-11T19:38:43.701Z,13.90
2023-05-11T19:41:16.584Z,13.80
2023-05-11T19:43:48.731Z,13.90
2023-05-11T19:46:21.819Z,13.90
2023-05-11T19:48:57.653Z,13.80
2023-05-11T19:51:29.612Z,13.70
2023-05-11T19:54:01.496Z,13.80
2023-05-11T19:56:33.918Z,13.90
2023-05-11T19:59:06.243Z,13.90
2023-05-11T20:01:38.250Z,13.90
2023-05-11T20:04:12.661Z,13.80
2023-05-11T20:06:44.507Z,13.70
2023-05-11T20:09:16.479Z,13.70
2023-05-11T20:11:48.697Z,13.50
2023-05-11T20:14:20.629Z,13.50
2023-05-11T20:16:52.628Z,13.40
2023-05-11T20:19:24.872Z,13.40
2023-05-11T20:21:56.938Z,13.50
